sensor_id;sensor_type;location;lat;lon;timestamp;pressure;altitude;pressure_sealevel;temperature;humidity
76732;BME280;65656;51.130;13.658;2023-08-31T00:03:57;98365.63;;;14.44;94.34
76732;BME280;65656;51.130;13.658;2023-08-31T00:08:00;98387.84;;;14.53;94.15
76732;BME280;65656;51.130;13.658;2023-08-31T00:12:02;98379.38;;;14.49;93.30
76732;BME280;65656;51.130;13.658;2023-08-31T00:16:03;98373.97;;;14.39;94.74
76732;BME280;65656;51.130;13.658;2023-08-31T00:20:06;98382.78;;;14.41;93.34
76732;BME280;65656;51.130;13.658;2023-08-31T00:24:09;98377.78;;;14.43;92.72
76732;BME280;65656;51.130;13.658;2023-08-31T00:28:11;98390.50;;;14.39;93.16
76732;BME280;65656;51.130;13.658;2023-08-31T00:32:12;98394.56;;;14.28;94.32
76732;BME280;65656;51.130;13.658;2023-08-31T00:36:14;98395.25;;;14.20;94.36
76732;BME280;65656;51.130;13.658;2023-08-31T00:40:17;98394.88;;;14.08;95.07
76732;BME280;65656;51.130;13.658;2023-08-31T00:44:19;98386.81;;;13.92;96.18
76732;BME280;65656;51.130;13.658;2023-08-31T00:48:20;98396.41;;;13.76;97.71
76732;BME280;65656;51.130;13.658;2023-08-31T00:52:22;98379.53;;;13.64;98.95
76732;BME280;65656;51.130;13.658;2023-08-31T00:56:25;98382.84;;;13.61;100.00
76732;BME280;65656;51.130;13.658;2023-08-31T01:00:32;98389.78;;;13.58;100.00
76732;BME280;65656;51.130;13.658;2023-08-31T01:04:43;98381.88;;;13.52;100.00
76732;BME280;65656;51.130;13.658;2023-08-31T01:08:53;98388.94;;;13.58;100.00
76732;BME280;65656;51.130;13.658;2023-08-31T01:13:02;98380.84;;;13.48;100.00
76732;BME280;65656;51.130;13.658;2023-08-31T01:17:07;98376.81;;;13.59;99.32
76732;BME280;65656;51.130;13.658;2023-08-31T01:21:17;98367.91;;;13.67;95.65
76732;BME280;65656;51.130;13.658;2023-08-31T01:25:23;98363.56;;;13.61;95.51
76732;BME280;65656;51.130;13.658;2023-08-31T01:29:25;98345.56;;;13.50;97.51
76732;BME280;65656;51.130;13.658;2023-08-31T01:33:27;98356.13;;;13.43;100.00
76732;BME280;65656;51.130;13.658;2023-08-31T01:37:32;98357.28;;;13.36;100.00
76732;BME280;65656;51.130;13.658;2023-08-31T01:41:38;98378.72;;;13.40;99.19
76732;BME280;65656;51.130;13.658;2023-08-31T01:45:42;98376.63;;;13.31;98.83
76732;BME280;65656;51.130;13.658;2023-08-31T01:49:43;98383.78;;;13.32;97.31
76732;BME280;65656;51.130;13.658;2023-08-31T01:53:45;98373.22;;;13.40;97.12
76732;BME280;65656;51.130;13.658;2023-08-31T01:57:48;98382.59;;;13.38;96.98
76732;BME280;65656;51.130;13.658;2023-08-31T02:01:50;98386.38;;;13.43;97.87
76732;BME280;65656;51.130;13.658;2023-08-31T02:05:51;98394.81;;;13.51;95.92
76732;BME280;65656;51.130;13.658;2023-08-31T02:09:53;98398.84;;;13.59;94.77
76732;BME280;65656;51.130;13.658;2023-08-31T02:13:56;98406.06;;;13.55;95.21
76732;BME280;65656;51.130;13.658;2023-08-31T02:17:57;98409.91;;;13.54;96.35
76732;BME280;65656;51.130;13.658;2023-08-31T02:21:59;98420.81;;;13.64;96.06
76732;BME280;65656;51.130;13.658;2023-08-31T02:26:00;98416.06;;;13.46;96.67
76732;BME280;65656;51.130;13.658;2023-08-31T02:30:04;98430.53;;;13.32;96.46
76732;BME280;65656;51.130;13.658;2023-08-31T02:34:06;98431.19;;;13.24;98.10
76732;BME280;65656;51.130;13.658;2023-08-31T02:38:08;98427.06;;;13.22;96.03
76732;BME280;65656;51.130;13.658;2023-08-31T02:42:09;98440.03;;;13.16;97.34
76732;BME280;65656;51.130;13.658;2023-08-31T02:46:12;98431.81;;;13.11;95.91
76732;BME280;65656;51.130;13.658;2023-08-31T02:50:14;98447.25;;;13.07;96.37
76732;BME280;65656;51.130;13.658;2023-08-31T02:54:15;98451.81;;;12.93;97.08
76732;BME280;65656;51.130;13.658;2023-08-31T02:58:17;98459.50;;;12.91;97.12
76732;BME280;65656;51.130;13.658;2023-08-31T03:02:20;98448.13;;;12.73;98.14
76732;BME280;65656;51.130;13.658;2023-08-31T03:06:21;98452.59;;;12.64;98.55
76732;BME280;65656;51.130;13.658;2023-08-31T03:10:23;98456.56;;;12.53;99.54
76732;BME280;65656;51.130;13.658;2023-08-31T03:14:25;98459.63;;;12.46;100.00
76732;BME280;65656;51.130;13.658;2023-08-31T03:18:28;98444.81;;;12.37;100.00
76732;BME280;65656;51.130;13.658;2023-08-31T03:22:30;98445.66;;;12.38;100.00
76732;BME280;65656;51.130;13.658;2023-08-31T03:26:31;98453.31;;;12.46;100.00
76732;BME280;65656;51.130;13.658;2023-08-31T03:30:33;98452.41;;;12.55;100.00
76732;BME280;65656;51.130;13.658;2023-08-31T03:34:36;98450.50;;;12.51;100.00
76732;BME280;65656;51.130;13.658;2023-08-31T03:38:37;98462.06;;;12.48;100.00
76732;BME280;65656;51.130;13.658;2023-08-31T03:42:39;98477.22;;;12.40;100.00
76732;BME280;65656;51.130;13.658;2023-08-31T03:46:41;98476.41;;;12.40;100.00
76732;BME280;65656;51.130;13.658;2023-08-31T03:50:43;98489.63;;;12.38;100.00
76732;BME280;65656;51.130;13.658;2023-08-31T03:54:45;98481.09;;;12.39;100.00
76732;BME280;65656;51.130;13.658;2023-08-31T03:58:47;98481.41;;;12.33;100.00
76732;BME280;65656;51.130;13.658;2023-08-31T04:02:48;98477.63;;;12.23;100.00
76732;BME280;65656;51.130;13.658;2023-08-31T04:06:51;98483.09;;;12.23;100.00
76732;BME280;65656;51.130;13.658;2023-08-31T04:10:53;98480.91;;;12.25;100.00
76732;BME280;65656;51.130;13.658;2023-08-31T04:14:54;98486.97;;;12.22;100.00
76732;BME280;65656;51.130;13.658;2023-08-31T04:18:56;98495.53;;;12.11;100.00
76732;BME280;65656;51.130;13.658;2023-08-31T04:22:59;98499.59;;;12.18;100.00
76732;BME280;65656;51.130;13.658;2023-08-31T04:27:01;98494.09;;;12.23;100.00
76732;BME280;65656;51.130;13.658;2023-08-31T04:31:04;98494.34;;;12.27;100.00
76732;BME280;65656;51.130;13.658;2023-08-31T04:35:06;98498.50;;;12.19;100.00
76732;BME280;65656;51.130;13.658;2023-08-31T04:39:09;98503.91;;;12.35;100.00
76732;BME280;65656;51.130;13.658;2023-08-31T04:43:11;98510.81;;;12.27;100.00
76732;BME280;65656;51.130;13.658;2023-08-31T04:47:13;98518.25;;;12.21;100.00
76732;BME280;65656;51.130;13.658;2023-08-31T04:51:28;98527.09;;;12.13;100.00
76732;BME280;65656;51.130;13.658;2023-08-31T04:55:31;98521.88;;;12.17;100.00
76732;BME280;65656;51.130;13.658;2023-08-31T04:59:33;98535.31;;;12.18;100.00
76732;BME280;65656;51.130;13.658;2023-08-31T05:03:34;98539.97;;;12.23;100.00
76732;BME280;65656;51.130;13.658;2023-08-31T05:07:36;98544.81;;;12.41;100.00
76732;BME280;65656;51.130;13.658;2023-08-31T05:11:39;98558.44;;;12.57;100.00
76732;BME280;65656;51.130;13.658;2023-08-31T05:15:40;98564.25;;;12.50;100.00
76732;BME280;65656;51.130;13.658;2023-08-31T05:19:42;98566.91;;;12.65;100.00
76732;BME280;65656;51.130;13.658;2023-08-31T05:23:43;98573.50;;;12.69;100.00
76732;BME280;65656;51.130;13.658;2023-08-31T05:27:46;98580.56;;;12.80;100.00
76732;BME280;65656;51.130;13.658;2023-08-31T05:31:48;98580.31;;;12.77;100.00
76732;BME280;65656;51.130;13.658;2023-08-31T05:35:50;98572.81;;;12.88;100.00
76732;BME280;65656;51.130;13.658;2023-08-31T05:39:51;98577.69;;;12.96;100.00
76732;BME280;65656;51.130;13.658;2023-08-31T05:43:54;98589.03;;;12.89;100.00
76732;BME280;65656;51.130;13.658;2023-08-31T05:47:56;98594.56;;;12.84;100.00
76732;BME280;65656;51.130;13.658;2023-08-31T05:51:57;98585.09;;;13.00;100.00
76732;BME280;65656;51.130;13.658;2023-08-31T05:55:59;98590.38;;;12.92;100.00
76732;BME280;65656;51.130;13.658;2023-08-31T06:00:03;98597.78;;;12.91;100.00
76732;BME280;65656;51.130;13.658;2023-08-31T06:04:04;98591.47;;;12.91;100.00
76732;BME280;65656;51.130;13.658;2023-08-31T06:08:06;98583.72;;;12.98;100.00
76732;BME280;65656;51.130;13.658;2023-08-31T06:12:08;98593.13;;;12.92;100.00
76732;BME280;65656;51.130;13.658;2023-08-31T06:16:10;98591.69;;;12.99;100.00
76732;BME280;65656;51.130;13.658;2023-08-31T06:20:12;98597.34;;;13.18;99.81
76732;BME280;65656;51.130;13.658;2023-08-31T06:24:14;98594.16;;;13.40;98.69
76732;BME280;65656;51.130;13.658;2023-08-31T06:28:15;98595.25;;;13.68;97.98
76732;BME280;65656;51.130;13.658;2023-08-31T06:32:18;98605.38;;;13.78;95.95
76732;BME280;65656;51.130;13.658;2023-08-31T06:36:20;98615.53;;;13.77;96.79
76732;BME280;65656;51.130;13.658;2023-08-31T06:40:21;98619.66;;;13.80;95.69
76732;BME280;65656;51.130;13.658;2023-08-31T06:44:23;98623.88;;;13.72;94.89
76732;BME280;65656;51.130;13.658;2023-08-31T06:48:26;98628.88;;;13.65;96.27
76732;BME280;65656;51.130;13.658;2023-08-31T06:52:28;98631.81;;;13.74;96.38
76732;BME280;65656;51.130;13.658;2023-08-31T06:56:33;98634.97;;;13.91;95.55
76732;BME280;65656;51.130;13.658;2023-08-31T07:00:34;98636.47;;;13.78;95.03
76732;BME280;65656;51.130;13.658;2023-08-31T07:04:37;98630.09;;;13.83;94.85
76732;BME280;65656;51.130;13.658;2023-08-31T07:08:39;98645.88;;;13.72;95.72
76732;BME280;65656;51.130;13.658;2023-08-31T07:12:40;98642.97;;;13.58;96.76
76732;BME280;65656;51.130;13.658;2023-08-31T07:16:42;98644.50;;;13.41;98.10
76732;BME280;65656;51.130;13.658;2023-08-31T07:20:46;98659.03;;;13.46;97.97
76732;BME280;65656;51.130;13.658;2023-08-31T07:24:48;98657.06;;;13.52;99.72
76732;BME280;65656;51.130;13.658;2023-08-31T07:28:50;98669.47;;;13.49;96.64
76732;BME280;65656;51.130;13.658;2023-08-31T07:32:51;98677.47;;;13.46;98.24
76732;BME280;65656;51.130;13.658;2023-08-31T07:36:54;98675.00;;;13.49;97.36
76732;BME280;65656;51.130;13.658;2023-08-31T07:40:56;98684.94;;;13.79;96.22
76732;BME280;65656;51.130;13.658;2023-08-31T07:44:57;98674.78;;;14.04;92.38
76732;BME280;65656;51.130;13.658;2023-08-31T07:48:59;98684.22;;;14.51;92.34
76732;BME280;65656;51.130;13.658;2023-08-31T07:53:02;98683.84;;;14.81;89.40
76732;BME280;65656;51.130;13.658;2023-08-31T07:57:04;98692.44;;;14.56;87.20
76732;BME280;65656;51.130;13.658;2023-08-31T08:01:06;98693.78;;;14.77;86.42
76732;BME280;65656;51.130;13.658;2023-08-31T08:05:08;98694.25;;;14.84;85.42
76732;BME280;65656;51.130;13.658;2023-08-31T08:09:10;98691.28;;;14.99;82.81
76732;BME280;65656;51.130;13.658;2023-08-31T08:13:12;98696.22;;;15.40;82.72
76732;BME280;65656;51.130;13.658;2023-08-31T08:17:15;98695.91;;;15.60;81.75
76732;BME280;65656;51.130;13.658;2023-08-31T08:21:17;98681.25;;;15.27;80.34
76732;BME280;65656;51.130;13.658;2023-08-31T08:25:20;98689.28;;;15.05;80.96
76732;BME280;65656;51.130;13.658;2023-08-31T08:29:21;98701.16;;;15.05;79.22
76732;BME280;65656;51.130;13.658;2023-08-31T08:33:23;98689.22;;;15.29;79.15
76732;BME280;65656;51.130;13.658;2023-08-31T08:37:25;98704.94;;;15.47;75.92
76732;BME280;65656;51.130;13.658;2023-08-31T08:41:28;98707.72;;;15.47;74.73
76732;BME280;65656;51.130;13.658;2023-08-31T08:45:35;98703.81;;;15.48;73.55
76732;BME280;65656;51.130;13.658;2023-08-31T08:49:38;98715.03;;;15.76;74.42
76732;BME280;65656;51.130;13.658;2023-08-31T08:53:42;98715.28;;;15.93;73.14
76732;BME280;65656;51.130;13.658;2023-08-31T08:57:45;98717.19;;;16.11;70.89
76732;BME280;65656;51.130;13.658;2023-08-31T09:01:47;98722.94;;;15.82;74.32
76732;BME280;65656;51.130;13.658;2023-08-31T09:05:49;98723.81;;;15.40;75.70
76732;BME280;65656;51.130;13.658;2023-08-31T09:09:52;98731.44;;;15.48;76.41
76732;BME280;65656;51.130;13.658;2023-08-31T09:13:56;98735.56;;;15.51;77.75
76732;BME280;65656;51.130;13.658;2023-08-31T09:17:58;98729.19;;;15.13;78.11
76732;BME280;65656;51.130;13.658;2023-08-31T09:22:01;98730.84;;;15.14;79.97
76732;BME280;65656;51.130;13.658;2023-08-31T09:26:04;98740.78;;;15.52;79.21
76732;BME280;65656;51.130;13.658;2023-08-31T09:30:07;98739.47;;;16.01;75.50
76732;BME280;65656;51.130;13.658;2023-08-31T09:34:09;98734.31;;;16.41;72.99
76732;BME280;65656;51.130;13.658;2023-08-31T09:38:11;98725.69;;;16.89;72.56
76732;BME280;65656;51.130;13.658;2023-08-31T09:42:13;98736.94;;;17.06;67.21
76732;BME280;65656;51.130;13.658;2023-08-31T09:46:16;98733.38;;;17.06;64.98
76732;BME280;65656;51.130;13.658;2023-08-31T09:50:18;98733.22;;;17.11;65.97
76732;BME280;65656;51.130;13.658;2023-08-31T09:54:21;98736.13;;;16.78;66.35
76732;BME280;65656;51.130;13.658;2023-08-31T09:58:23;98737.44;;;16.07;68.70
76732;BME280;65656;51.130;13.658;2023-08-31T10:02:27;98744.47;;;15.99;70.09
76732;BME280;65656;51.130;13.658;2023-08-31T10:06:31;98740.78;;;15.52;75.43
76732;BME280;65656;51.130;13.658;2023-08-31T10:10:34;98745.53;;;15.28;73.02
76732;BME280;65656;51.130;13.658;2023-08-31T10:14:37;98742.50;;;15.67;72.27
76732;BME280;65656;51.130;13.658;2023-08-31T10:18:40;98737.56;;;16.15;71.44
76732;BME280;65656;51.130;13.658;2023-08-31T10:22:42;98738.16;;;16.59;69.92
76732;BME280;65656;51.130;13.658;2023-08-31T10:26:44;98742.69;;;16.82;69.29
76732;BME280;65656;51.130;13.658;2023-08-31T10:31:00;98741.25;;;17.12;64.70
76732;BME280;65656;51.130;13.658;2023-08-31T10:35:07;98726.59;;;17.48;63.25
76732;BME280;65656;51.130;13.658;2023-08-31T10:39:13;98724.66;;;18.38;58.14
76732;BME280;65656;51.130;13.658;2023-08-31T10:43:16;98728.28;;;18.16;57.62
76732;BME280;65656;51.130;13.658;2023-08-31T10:47:18;98733.78;;;18.07;56.22
76732;BME280;65656;51.130;13.658;2023-08-31T10:51:26;98736.59;;;17.58;55.24
76732;BME280;65656;51.130;13.658;2023-08-31T10:55:31;98735.47;;;17.22;58.72
76732;BME280;65656;51.130;13.658;2023-08-31T10:59:44;98739.41;;;16.94;61.00
76732;BME280;65656;51.130;13.658;2023-08-31T11:03:58;98796.66;;;16.33;65.64
76732;BME280;65656;51.130;13.658;2023-08-31T11:08:01;98799.06;;;13.92;84.04
76732;BME280;65656;51.130;13.658;2023-08-31T11:12:05;98821.28;;;13.07;87.41
76732;BME280;65656;51.130;13.658;2023-08-31T11:16:07;98818.13;;;12.44;93.99
76732;BME280;65656;51.130;13.658;2023-08-31T11:20:13;98826.41;;;11.98;100.00
76732;BME280;65656;51.130;13.658;2023-08-31T11:24:17;98806.09;;;11.99;100.00
76732;BME280;65656;51.130;13.658;2023-08-31T11:28:19;98807.19;;;12.08;100.00
76732;BME280;65656;51.130;13.658;2023-08-31T11:32:23;98790.72;;;12.08;100.00
76732;BME280;65656;51.130;13.658;2023-08-31T11:36:25;98786.53;;;12.62;100.00
76732;BME280;65656;51.130;13.658;2023-08-31T11:40:28;98783.75;;;13.36;100.00
76732;BME280;65656;51.130;13.658;2023-08-31T11:44:30;98780.44;;;14.18;95.03
76732;BME280;65656;51.130;13.658;2023-08-31T11:48:32;98781.69;;;14.60;90.94
76732;BME280;65656;51.130;13.658;2023-08-31T11:52:34;98786.59;;;14.63;89.43
76732;BME280;65656;51.130;13.658;2023-08-31T11:56:42;98767.72;;;14.99;88.60
76732;BME280;65656;51.130;13.658;2023-08-31T12:00:44;98777.41;;;14.96;85.58
76732;BME280;65656;51.130;13.658;2023-08-31T12:04:46;98778.88;;;15.13;89.41
76732;BME280;65656;51.130;13.658;2023-08-31T12:08:48;98777.38;;;15.82;85.63
76732;BME280;65656;51.130;13.658;2023-08-31T12:12:51;98770.53;;;16.58;87.01
76732;BME280;65656;51.130;13.658;2023-08-31T12:17:00;98754.78;;;16.73;76.03
76732;BME280;65656;51.130;13.658;2023-08-31T12:21:02;98748.53;;;16.21;76.21
76732;BME280;65656;51.130;13.658;2023-08-31T12:25:05;98748.69;;;16.10;81.30
76732;BME280;65656;51.130;13.658;2023-08-31T12:29:08;98760.09;;;15.90;81.96
76732;BME280;65656;51.130;13.658;2023-08-31T12:33:09;98749.44;;;17.17;80.98
76732;BME280;65656;51.130;13.658;2023-08-31T12:37:11;98733.69;;;19.40;67.00
76732;BME280;65656;51.130;13.658;2023-08-31T12:41:12;98729.47;;;20.68;56.52
76732;BME280;65656;51.130;13.658;2023-08-31T12:45:15;98731.88;;;21.07;59.17
76732;BME280;65656;51.130;13.658;2023-08-31T12:49:17;98738.03;;;21.93;50.15
76732;BME280;65656;51.130;13.658;2023-08-31T12:53:20;98745.59;;;22.59;49.24
76732;BME280;65656;51.130;13.658;2023-08-31T12:57:22;98745.72;;;22.62;47.27
76732;BME280;65656;51.130;13.658;2023-08-31T13:01:25;98757.22;;;20.21;51.59
76732;BME280;65656;51.130;13.658;2023-08-31T13:05:27;98753.25;;;18.16;58.27
76732;BME280;65656;51.130;13.658;2023-08-31T13:09:29;98753.06;;;17.90;60.43
76732;BME280;65656;51.130;13.658;2023-08-31T13:13:31;98742.53;;;17.78;61.83
76732;BME280;65656;51.130;13.658;2023-08-31T13:17:34;98756.84;;;17.94;63.79
76732;BME280;65656;51.130;13.658;2023-08-31T13:21:36;98760.06;;;19.86;56.10
76732;BME280;65656;51.130;13.658;2023-08-31T13:25:38;98747.78;;;22.53;50.34
76732;BME280;65656;51.130;13.658;2023-08-31T13:29:39;98749.59;;;24.08;48.96
76732;BME280;65656;51.130;13.658;2023-08-31T13:33:42;98745.50;;;25.24;42.59
76732;BME280;65656;51.130;13.658;2023-08-31T13:37:44;98741.16;;;25.78;43.24
76732;BME280;65656;51.130;13.658;2023-08-31T13:41:45;98744.75;;;23.80;43.88
76732;BME280;65656;51.130;13.658;2023-08-31T13:45:47;98753.03;;;22.01;48.56
76732;BME280;65656;51.130;13.658;2023-08-31T13:49:50;98758.41;;;20.75;53.17
76732;BME280;65656;51.130;13.658;2023-08-31T13:53:52;98747.88;;;19.30;54.29
76732;BME280;65656;51.130;13.658;2023-08-31T13:57:53;98746.28;;;18.05;59.21
76732;BME280;65656;51.130;13.658;2023-08-31T14:01:55;98753.16;;;17.49;61.69
76732;BME280;65656;51.130;13.658;2023-08-31T14:05:58;98752.97;;;17.81;62.37
76732;BME280;65656;51.130;13.658;2023-08-31T14:10:00;98754.38;;;17.93;63.35
76732;BME280;65656;51.130;13.658;2023-08-31T14:14:03;98754.31;;;19.65;54.98
76732;BME280;65656;51.130;13.658;2023-08-31T14:18:05;98749.78;;;21.78;47.66
76732;BME280;65656;51.130;13.658;2023-08-31T14:22:08;98753.53;;;21.10;45.86
76732;BME280;65656;51.130;13.658;2023-08-31T14:26:10;98759.34;;;22.18;45.12
76732;BME280;65656;51.130;13.658;2023-08-31T14:30:11;98746.22;;;23.62;40.82
76732;BME280;65656;51.130;13.658;2023-08-31T14:34:13;98764.03;;;22.39;42.02
76732;BME280;65656;51.130;13.658;2023-08-31T14:38:20;98756.28;;;23.14;40.64
76732;BME280;65656;51.130;13.658;2023-08-31T14:42:21;98758.63;;;20.62;44.53
76732;BME280;65656;51.130;13.658;2023-08-31T14:46:23;98752.84;;;19.94;46.22
76732;BME280;65656;51.130;13.658;2023-08-31T14:50:25;98749.00;;;19.29;48.24
76732;BME280;65656;51.130;13.658;2023-08-31T14:54:28;98758.09;;;19.12;48.60
76732;BME280;65656;51.130;13.658;2023-08-31T14:58:30;98760.88;;;19.04;47.67
76732;BME280;65656;51.130;13.658;2023-08-31T15:02:31;98754.59;;;18.89;46.95
76732;BME280;65656;51.130;13.658;2023-08-31T15:06:33;98753.06;;;18.75;48.75
76732;BME280;65656;51.130;13.658;2023-08-31T15:10:37;98759.94;;;19.17;49.47
76732;BME280;65656;51.130;13.658;2023-08-31T15:14:39;98749.72;;;18.86;48.16
76732;BME280;65656;51.130;13.658;2023-08-31T15:18:41;98766.72;;;18.93;49.46
76732;BME280;65656;51.130;13.658;2023-08-31T15:22:43;98756.06;;;18.56;49.92
76732;BME280;65656;51.130;13.658;2023-08-31T15:26:45;98757.97;;;18.16;51.91
76732;BME280;65656;51.130;13.658;2023-08-31T15:30:47;98776.81;;;17.83;52.05
76732;BME280;65656;51.130;13.658;2023-08-31T15:34:49;98772.69;;;17.80;51.58
76732;BME280;65656;51.130;13.658;2023-08-31T15:38:52;98794.09;;;18.55;54.54
76732;BME280;65656;51.130;13.658;2023-08-31T15:42:55;98779.56;;;18.05;55.46
76732;BME280;65656;51.130;13.658;2023-08-31T15:46:56;98772.00;;;17.74;55.18
76732;BME280;65656;51.130;13.658;2023-08-31T15:51:00;98768.34;;;17.88;57.07
76732;BME280;65656;51.130;13.658;2023-08-31T15:55:03;98774.88;;;18.05;54.30
76732;BME280;65656;51.130;13.658;2023-08-31T15:59:06;98778.19;;;17.94;53.73
76732;BME280;65656;51.130;13.658;2023-08-31T16:03:08;98786.38;;;17.99;53.26
76732;BME280;65656;51.130;13.658;2023-08-31T16:07:10;98780.31;;;17.97;55.14
76732;BME280;65656;51.130;13.658;2023-08-31T16:11:11;98778.81;;;17.91;55.28
76732;BME280;65656;51.130;13.658;2023-08-31T16:15:15;98787.13;;;17.91;53.99
76732;BME280;65656;51.130;13.658;2023-08-31T16:19:16;98795.19;;;18.01;55.04
76732;BME280;65656;51.130;13.658;2023-08-31T16:23:18;98790.66;;;17.83;55.23
76732;BME280;65656;51.130;13.658;2023-08-31T16:27:19;98789.53;;;17.84;55.21
76732;BME280;65656;51.130;13.658;2023-08-31T16:31:22;98795.28;;;17.73;57.20
76732;BME280;65656;51.130;13.658;2023-08-31T16:35:24;98790.13;;;17.80;56.44
76732;BME280;65656;51.130;13.658;2023-08-31T16:39:26;98799.78;;;17.69;55.93
76732;BME280;65656;51.130;13.658;2023-08-31T16:43:28;98804.53;;;17.55;57.72
76732;BME280;65656;51.130;13.658;2023-08-31T16:47:31;98801.88;;;17.50;59.36
76732;BME280;65656;51.130;13.658;2023-08-31T16:51:32;98789.81;;;17.32;56.91
76732;BME280;65656;51.130;13.658;2023-08-31T16:55:37;98811.97;;;17.18;55.82
76732;BME280;65656;51.130;13.658;2023-08-31T16:59:38;98806.66;;;17.08;55.90
76732;BME280;65656;51.130;13.658;2023-08-31T17:03:41;98812.59;;;17.15;55.76
76732;BME280;65656;51.130;13.658;2023-08-31T17:07:43;98829.19;;;17.15;56.90
76732;BME280;65656;51.130;13.658;2023-08-31T17:11:45;98836.75;;;16.96;62.09
76732;BME280;65656;51.130;13.658;2023-08-31T17:15:46;98832.66;;;16.80;64.92
76732;BME280;65656;51.130;13.658;2023-08-31T17:19:51;98841.19;;;16.64;67.29
76732;BME280;65656;51.130;13.658;2023-08-31T17:23:53;98850.56;;;16.36;69.06
76732;BME280;65656;51.130;13.658;2023-08-31T17:27:54;98843.28;;;16.07;70.57
76732;BME280;65656;51.130;13.658;2023-08-31T17:31:56;98849.50;;;15.80;72.53
76732;BME280;65656;51.130;13.658;2023-08-31T17:35:59;98846.69;;;15.62;73.64
76732;BME280;65656;51.130;13.658;2023-08-31T17:40:00;98857.44;;;15.39;79.50
76732;BME280;65656;51.130;13.658;2023-08-31T17:44:02;98848.88;;;15.17;78.15
76732;BME280;65656;51.130;13.658;2023-08-31T17:48:04;98856.94;;;14.89;81.50
76732;BME280;65656;51.130;13.658;2023-08-31T17:52:08;98857.19;;;14.64;85.48
76732;BME280;65656;51.130;13.658;2023-08-31T17:56:10;98865.09;;;14.41;88.33
76732;BME280;65656;51.130;13.658;2023-08-31T18:00:12;98855.34;;;14.20;88.93
76732;BME280;65656;51.130;13.658;2023-08-31T18:04:14;98874.72;;;14.05;89.12
76732;BME280;65656;51.130;13.658;2023-08-31T18:08:17;98879.84;;;13.77;91.63
76732;BME280;65656;51.130;13.658;2023-08-31T18:12:19;98883.31;;;13.49;92.81
76732;BME280;65656;51.130;13.658;2023-08-31T18:16:21;98883.41;;;13.28;98.10
76732;BME280;65656;51.130;13.658;2023-08-31T18:20:23;98890.56;;;13.19;97.39
76732;BME280;65656;51.130;13.658;2023-08-31T18:24:26;98896.63;;;13.11;95.04
76732;BME280;65656;51.130;13.658;2023-08-31T18:28:27;98900.50;;;13.05;92.82
76732;BME280;65656;51.130;13.658;2023-08-31T18:32:29;98893.38;;;12.94;94.28
76732;BME280;65656;51.130;13.658;2023-08-31T18:36:30;98895.59;;;12.81;97.81
76732;BME280;65656;51.130;13.658;2023-08-31T18:40:36;98893.41;;;12.73;97.20
76732;BME280;65656;51.130;13.658;2023-08-31T18:44:37;98889.56;;;12.69;97.01
76732;BME280;65656;51.130;13.658;2023-08-31T18:48:39;98895.63;;;12.61;96.77
76732;BME280;65656;51.130;13.658;2023-08-31T18:52:41;98901.66;;;12.58;96.76
76732;BME280;65656;51.130;13.658;2023-08-31T18:56:44;98890.66;;;12.68;96.19
76732;BME280;65656;51.130;13.658;2023-08-31T19:00:45;98905.53;;;12.62;97.47
76732;BME280;65656;51.130;13.658;2023-08-31T19:04:47;98900.84;;;12.47;97.47
76732;BME280;65656;51.130;13.658;2023-08-31T19:08:49;98906.34;;;12.27;100.00
76732;BME280;65656;51.130;13.658;2023-08-31T19:12:52;98901.66;;;12.17;100.00
76732;BME280;65656;51.130;13.658;2023-08-31T19:16:53;98901.38;;;12.14;100.00
76732;BME280;65656;51.130;13.658;2023-08-31T19:20:59;98897.81;;;12.28;100.00
76732;BME280;65656;51.130;13.658;2023-08-31T19:25:18;98900.03;;;12.47;96.01
76732;BME280;65656;51.130;13.658;2023-08-31T19:29:21;98898.34;;;12.66;95.61
76732;BME280;65656;51.130;13.658;2023-08-31T19:33:23;98901.09;;;12.81;94.99
76732;BME280;65656;51.130;13.658;2023-08-31T19:37:31;98900.81;;;12.88;94.35
76732;BME280;65656;51.130;13.658;2023-08-31T19:41:32;98923.06;;;12.97;94.21
76732;BME280;65656;51.130;13.658;2023-08-31T19:45:35;98949.16;;;13.15;92.58
76732;BME280;65656;51.130;13.658;2023-08-31T19:49:37;98957.69;;;13.13;92.17
76732;BME280;65656;51.130;13.658;2023-08-31T19:53:39;98976.66;;;13.15;91.85
76732;BME280;65656;51.130;13.658;2023-08-31T19:57:40;98989.63;;;12.89;95.94
76732;BME280;65656;51.130;13.658;2023-08-31T20:01:43;98971.47;;;12.62;99.52
76732;BME280;65656;51.130;13.658;2023-08-31T20:05:45;98965.13;;;12.26;100.00
76732;BME280;65656;51.130;13.658;2023-08-31T20:09:46;98986.75;;;12.02;100.00
76732;BME280;65656;51.130;13.658;2023-08-31T20:13:48;98970.78;;;11.89;100.00
76732;BME280;65656;51.130;13.658;2023-08-31T20:17:51;98983.31;;;11.69;100.00
76732;BME280;65656;51.130;13.658;2023-08-31T20:21:53;98986.50;;;11.51;100.00
76732;BME280;65656;51.130;13.658;2023-08-31T20:25:54;98986.75;;;11.39;100.00
76732;BME280;65656;51.130;13.658;2023-08-31T20:29:56;98997.41;;;11.31;100.00
76732;BME280;65656;51.130;13.658;2023-08-31T20:33:59;99003.38;;;11.28;100.00
76732;BME280;65656;51.130;13.658;2023-08-31T20:38:01;99047.34;;;11.38;100.00
76732;BME280;65656;51.130;13.658;2023-08-31T20:42:03;99069.41;;;11.58;100.00
76732;BME280;65656;51.130;13.658;2023-08-31T20:46:06;99082.78;;;11.87;100.00
76732;BME280;65656;51.130;13.658;2023-08-31T20:50:10;99064.66;;;11.86;100.00
76732;BME280;65656;51.130;13.658;2023-08-31T20:54:11;99076.03;;;12.10;100.00
76732;BME280;65656;51.130;13.658;2023-08-31T20:58:13;99062.56;;;12.08;100.00
76732;BME280;65656;51.130;13.658;2023-08-31T21:02:15;99057.94;;;12.19;100.00
76732;BME280;65656;51.130;13.658;2023-08-31T21:06:18;99047.22;;;12.17;100.00